createdAt,value
2023-08-14T00:04:42.427Z,19.52
2023-08-14T00:09:46.301Z,19.49
2023-08-14T00:14:48.837Z,19.50
2023-08-14T00:19:51.342Z,19.52
2023-08-14T00:24:55.204Z,19.56
2023-08-14T00:29:57.891Z,19.56
2023-08-14T00:35:00.492Z,19.62
2023-08-14T00:40:04.820Z,19.64
2023-08-14T00:45:08.745Z,19.65
2023-08-14T00:50:12.294Z,19.64
2023-08-14T00:55:20.952Z,19.59
2023-08-14T01:00:24.287Z,19.56
2023-08-14T01:05:26.969Z,19.56
2023-08-14T01:10:41.489Z,19.61
2023-08-14T01:15:46.713Z,19.63
2023-08-14T01:21:00.594Z,19.63
2023-08-14T01:26:04.844Z,19.63
2023-08-14T01:31:07.409Z,19.61
2023-08-14T01:36:19.021Z,19.54
2023-08-14T01:41:27.771Z,19.41
2023-08-14T01:46:35.173Z,19.33
2023-08-14T01:51:38.359Z,19.28
2023-08-14T01:56:42.206Z,19.18
2023-08-14T02:01:44.765Z,19.16
2023-08-14T02:06:47.319Z,19.15
2023-08-14T02:11:51.211Z,19.11
2023-08-14T02:16:54.000Z,19.11
2023-08-14T02:21:56.539Z,19.11
2023-08-14T02:27:00.467Z,19.11
2023-08-14T02:32:03.001Z,19.06
2023-08-14T02:37:05.740Z,19.04
2023-08-14T02:42:10.197Z,19.01
2023-08-14T02:47:12.824Z,18.93
2023-08-14T02:52:15.563Z,18.90
2023-08-14T02:57:19.662Z,18.86
2023-08-14T03:02:22.285Z,18.82
2023-08-14T03:07:24.817Z,18.76
2023-08-14T03:12:28.672Z,18.70
2023-08-14T03:17:31.234Z,18.61
2023-08-14T03:22:33.781Z,18.63
2023-08-14T03:27:38.009Z,18.63
2023-08-14T03:32:40.609Z,18.58
2023-08-14T03:37:43.153Z,18.52
2023-08-14T03:42:46.995Z,18.42
2023-08-14T03:47:49.651Z,18.39
2023-08-14T03:52:52.223Z,18.38
2023-08-14T03:57:57.348Z,18.32
2023-08-14T04:02:59.983Z,18.21
2023-08-14T04:08:02.615Z,18.18
2023-08-14T04:13:07.603Z,18.17
2023-08-14T04:18:10.167Z,18.14
2023-08-14T04:23:13.028Z,18.07
2023-08-14T04:28:16.889Z,17.98
2023-08-14T04:33:19.754Z,18.03
2023-08-14T04:38:22.371Z,18.05
2023-08-14T04:43:26.369Z,18.08
2023-08-14T04:48:28.887Z,18.09
2023-08-14T04:53:31.534Z,18.12
2023-08-14T04:58:35.384Z,18.17
2023-08-14T05:03:38.341Z,18.24
2023-08-14T05:08:40.893Z,18.34
2023-08-14T05:13:45.623Z,18.41
2023-08-14T05:18:48.232Z,18.46
2023-08-14T05:23:50.776Z,18.54
2023-08-14T05:28:54.666Z,18.70
2023-08-14T05:33:58.281Z,18.85
2023-08-14T05:39:00.853Z,18.98
2023-08-14T05:44:04.914Z,19.13
2023-08-14T05:49:07.444Z,19.28
2023-08-14T05:54:10.177Z,19.42
2023-08-14T05:59:14.065Z,19.58
2023-08-14T06:04:16.669Z,19.74
2023-08-14T06:09:20.680Z,19.92
2023-08-14T06:14:24.520Z,20.13
2023-08-14T06:19:27.069Z,20.36
2023-08-14T06:24:30.392Z,20.65
2023-08-14T06:29:34.263Z,20.93
2023-08-14T06:34:36.961Z,21.10
2023-08-14T06:39:39.510Z,21.36
2023-08-14T06:44:43.388Z,21.62
2023-08-14T06:49:45.934Z,21.79
2023-08-14T06:54:48.478Z,22.04
2023-08-14T06:59:52.385Z,22.42
2023-08-14T07:04:54.905Z,22.84
2023-08-14T07:09:57.749Z,23.07
2023-08-14T07:15:02.554Z,23.26
2023-08-14T07:20:10.637Z,23.50
2023-08-14T07:25:14.413Z,23.88
2023-08-14T07:30:18.940Z,24.09
2023-08-14T07:35:21.785Z,24.47
2023-08-14T07:40:24.347Z,24.71
2023-08-14T07:45:28.354Z,24.72
2023-08-14T07:50:30.980Z,24.95
2023-08-14T07:55:33.611Z,25.13
2023-08-14T08:00:37.883Z,25.37
2023-08-14T08:05:40.556Z,25.82
2023-08-14T08:10:43.149Z,26.20
2023-08-14T08:15:47.040Z,26.31
2023-08-14T08:20:49.629Z,26.66
2023-08-14T08:25:52.473Z,26.70
2023-08-14T08:30:56.463Z,26.91
2023-08-14T08:35:58.994Z,26.92
2023-08-14T08:41:03.947Z,27.10
2023-08-14T08:46:11.005Z,26.99
2023-08-14T08:51:13.975Z,27.37
2023-08-14T08:56:16.751Z,27.54
2023-08-14T09:01:21.584Z,27.64
2023-08-14T09:06:24.157Z,27.34
2023-08-14T09:11:27.092Z,27.52
2023-08-14T09:16:31.069Z,28.06
2023-08-14T09:21:33.839Z,28.39
2023-08-14T09:26:36.392Z,28.52
2023-08-14T09:31:44.510Z,28.35
2023-08-14T09:36:50.188Z,28.43
2023-08-14T09:41:53.705Z,28.76
2023-08-14T09:47:02.019Z,28.93
2023-08-14T09:52:07.640Z,28.90
2023-08-14T09:57:10.377Z,28.74
2023-08-14T10:02:18.153Z,28.62
2023-08-14T10:07:22.236Z,28.77
2023-08-14T10:12:30.221Z,28.77
2023-08-14T10:17:38.683Z,29.09
2023-08-14T10:22:42.864Z,29.37
2023-08-14T10:27:45.564Z,29.47
2023-08-14T10:32:50.275Z,29.52
2023-08-14T10:38:08.342Z,29.59
2023-08-14T10:43:13.169Z,29.51
2023-08-14T10:48:18.693Z,29.37
2023-08-14T10:53:21.274Z,29.54
2023-08-14T10:58:40.641Z,29.62
2023-08-14T11:04:05.860Z,29.83
2023-08-14T11:09:08.432Z,29.94
2023-08-14T11:14:11.514Z,30.16
2023-08-14T11:19:15.602Z,30.33
2023-08-14T11:24:18.654Z,30.44
2023-08-14T11:29:21.272Z,30.50
2023-08-14T11:34:25.133Z,30.49
2023-08-14T11:39:28.779Z,30.78
2023-08-14T11:44:31.349Z,30.84
2023-08-14T11:49:37.280Z,31.03
2023-08-14T11:54:39.881Z,31.24
2023-08-14T11:59:42.490Z,31.34
2023-08-14T12:04:46.348Z,31.30
2023-08-14T12:09:49.872Z,31.37
2023-08-14T12:14:54.411Z,31.43
2023-08-14T12:19:59.473Z,31.55
2023-08-14T12:25:05.625Z,31.54
2023-08-14T12:30:11.474Z,31.36
2023-08-14T12:35:15.407Z,31.15
2023-08-14T12:40:18.280Z,31.07
2023-08-14T12:45:20.936Z,30.82
2023-08-14T12:50:24.825Z,30.77
2023-08-14T12:55:27.449Z,30.86
2023-08-14T13:00:32.515Z,31.01
2023-08-14T13:05:36.794Z,31.14
2023-08-14T13:10:39.326Z,31.16
2023-08-14T13:15:41.878Z,31.03
2023-08-14T13:20:45.798Z,30.91
2023-08-14T13:25:48.346Z,30.77
2023-08-14T13:30:51.439Z,30.56
2023-08-14T13:35:55.400Z,30.41
2023-08-14T13:40:58.152Z,30.31
2023-08-14T13:46:00.774Z,30.32
2023-08-14T13:51:04.794Z,30.45
2023-08-14T13:56:07.433Z,30.64
2023-08-14T14:01:10.377Z,30.52
2023-08-14T14:06:14.388Z,30.29
2023-08-14T14:11:16.912Z,30.18
2023-08-14T14:16:24.272Z,30.06
2023-08-14T14:21:28.315Z,29.91
2023-08-14T14:26:30.827Z,30.00
2023-08-14T14:31:33.457Z,29.93
2023-08-14T14:36:37.835Z,29.91
2023-08-14T14:41:40.588Z,30.17
2023-08-14T14:46:43.469Z,30.38
2023-08-14T14:51:47.512Z,30.47
2023-08-14T14:56:50.064Z,30.35
2023-08-14T15:01:52.581Z,30.11
2023-08-14T15:06:56.459Z,30.00
2023-08-14T15:11:58.988Z,29.91
2023-08-14T15:17:01.524Z,29.87
2023-08-14T15:22:05.639Z,29.77
2023-08-14T15:27:08.201Z,29.75
2023-08-14T15:32:10.728Z,29.86
2023-08-14T15:37:14.651Z,29.93
2023-08-14T15:42:17.256Z,30.00
2023-08-14T15:47:20.040Z,30.10
2023-08-14T15:52:29.615Z,30.18
2023-08-14T15:57:32.243Z,30.21
2023-08-14T16:02:35.205Z,30.22
2023-08-14T16:07:39.274Z,30.13
2023-08-14T16:12:41.890Z,30.10
2023-08-14T16:17:44.477Z,30.08
2023-08-14T16:22:48.496Z,30.04
2023-08-14T16:27:51.039Z,30.01
2023-08-14T16:32:53.628Z,29.96
2023-08-14T16:37:57.537Z,29.87
2023-08-14T16:43:01.169Z,29.79
2023-08-14T16:48:04.961Z,29.77
2023-08-14T16:53:10.689Z,29.70
2023-08-14T16:58:13.301Z,29.63
2023-08-14T17:03:15.882Z,29.52
2023-08-14T17:08:19.733Z,29.40
2023-08-14T17:13:22.364Z,29.35
2023-08-14T17:18:25.235Z,29.22
2023-08-14T17:23:29.168Z,29.11
2023-08-14T17:28:31.787Z,29.03
2023-08-14T17:33:34.337Z,28.93
2023-08-14T17:38:38.218Z,28.78
2023-08-14T17:43:40.756Z,28.61
2023-08-14T17:48:43.282Z,28.38
2023-08-14T17:53:47.125Z,28.25
2023-08-14T17:58:49.720Z,28.13
2023-08-14T18:03:52.435Z,28.01
2023-08-14T18:08:56.378Z,27.89
2023-08-14T18:13:58.892Z,27.75
2023-08-14T18:19:17.690Z,27.65
2023-08-14T18:24:25.299Z,27.55
2023-08-14T18:29:27.830Z,27.40
2023-08-14T18:34:30.384Z,27.30
2023-08-14T18:39:34.257Z,27.21
2023-08-14T18:44:36.800Z,27.10
2023-08-14T18:49:44.122Z,26.95
2023-08-14T18:54:48.452Z,26.89
2023-08-14T18:59:50.974Z,26.78
2023-08-14T19:04:53.553Z,26.62
2023-08-14T19:09:57.690Z,26.57
2023-08-14T19:15:00.290Z,26.54
2023-08-14T19:20:03.256Z,26.52
2023-08-14T19:25:08.151Z,26.45
2023-08-14T19:30:11.351Z,26.35
2023-08-14T19:35:13.871Z,26.27
2023-08-14T19:40:17.731Z,26.15
2023-08-14T19:45:20.861Z,26.07
2023-08-14T19:50:23.420Z,25.99
2023-08-14T19:55:27.295Z,25.93
2023-08-14T20:00:29.923Z,25.83
2023-08-14T20:05:32.517Z,25.85
2023-08-14T20:10:36.387Z,25.78
2023-08-14T20:15:43.946Z,25.69
2023-08-14T20:20:46.469Z,25.66
2023-08-14T20:25:52.269Z,25.58
2023-08-14T20:30:54.863Z,25.55
2023-08-14T20:35:57.509Z,25.52
2023-08-14T20:41:01.759Z,25.41
2023-08-14T20:46:04.328Z,25.33
2023-08-14T20:51:06.907Z,25.28
2023-08-14T20:56:10.758Z,25.25
2023-08-14T21:01:14.897Z,25.29
2023-08-14T21:06:18.608Z,25.24
2023-08-14T21:11:22.773Z,25.13
2023-08-14T21:16:25.478Z,25.06
2023-08-14T21:21:28.103Z,24.98
2023-08-14T21:26:32.282Z,24.92
2023-08-14T21:31:35.255Z,24.85
2023-08-14T21:36:37.856Z,24.83
2023-08-14T21:41:41.803Z,24.80
2023-08-14T21:46:44.624Z,24.74
2023-08-14T21:51:47.353Z,24.69
2023-08-14T21:56:51.282Z,24.67
2023-08-14T22:01:53.895Z,24.66
2023-08-14T22:06:56.412Z,24.66
2023-08-14T22:12:00.316Z,24.65
2023-08-14T22:17:02.878Z,24.62
2023-08-14T22:22:05.454Z,24.56
2023-08-14T22:27:09.412Z,24.52
2023-08-14T22:32:11.971Z,24.43
2023-08-14T22:37:14.503Z,24.36
2023-08-14T22:42:18.372Z,24.33
2023-08-14T22:47:21.050Z,24.28
2023-08-14T22:52:23.857Z,24.21
2023-08-14T22:57:27.727Z,24.17
2023-08-14T23:02:30.298Z,24.11
2023-08-14T23:07:32.881Z,24.07
2023-08-14T23:12:36.736Z,24.02
2023-08-14T23:17:39.572Z,23.96
2023-08-14T23:22:42.229Z,23.91
2023-08-14T23:27:46.871Z,23.84
2023-08-14T23:32:49.478Z,23.78
2023-08-14T23:37:52.028Z,23.75
2023-08-14T23:42:55.929Z,23.75
2023-08-14T23:47:58.506Z,23.76
2023-08-14T23:53:01.061Z,23.75
2023-08-14T23:58:05.286Z,23.70
